Time;durP1;ratioP1;P1;durP2;ratioP2;P2;SDS_P1;SDS_P2;PMS_P1;PMS_P2;Temp;Humidity;BMP_temperature;BMP_pressure;BME280_temperature;BME280_humidity;BME280_pressure;Samples;Min_cycle;Max_cycle;Signal;HPM_P1;HPM_P2
2021/07/03 00:00:01;;;;;;;5.95;3.90;;;;;;;17.72;74.61;99252.88;5011811;28;20057;-4
2021/07/03 00:02:27;;;;;;;8.55;4.47;;;;;;;17.79;74.30;99249.88;5013195;28;20168;-16
2021/07/03 00:04:53;;;;;;;7.20;4.30;;;;;;;17.75;74.43;99248.31;5013321;28;20114;-4
2021/07/03 00:07:19;;;;;;;10.32;4.40;;;;;;;17.81;74.40;99252.47;5013097;28;20042;-3
2021/07/03 00:09:45;;;;;;;8.65;4.20;;;;;;;17.77;74.37;99246.47;5014012;28;20111;-3
2021/07/03 00:12:11;;;;;;;6.25;4.47;;;;;;;17.64;74.67;99235.59;5012996;28;20041;-3
2021/07/03 00:14:37;;;;;;;5.90;3.72;;;;;;;17.76;75.09;99250.03;5011857;28;20584;-3
2021/07/03 00:17:03;;;;;;;6.88;4.10;;;;;;;17.84;74.06;99245.22;5013003;28;20049;-6
2021/07/03 00:19:31;;;;;;;6.90;4.75;;;;;;;17.68;74.46;99244.25;5011591;28;20053;0
2021/07/03 00:21:57;;;;;;;8.82;5.32;;;;;;;17.66;74.63;99244.31;5013968;28;20072;0
2021/07/03 00:24:23;;;;;;;7.22;4.55;;;;;;;17.61;74.75;99229.56;5012915;28;20042;0
2021/07/03 00:26:49;;;;;;;7.03;4.50;;;;;;;17.57;74.82;99228.00;5012860;28;20108;0
2021/07/03 00:29:16;;;;;;;8.52;5.00;;;;;;;17.67;75.03;99238.06;5012798;28;20042;0
2021/07/03 00:31:42;;;;;;;5.97;4.18;;;;;;;18.10;75.08;99303.19;5011960;28;20069;0
2021/07/03 00:34:08;;;;;;;7.55;4.75;;;;;;;18.01;75.15;99294.72;5012857;28;20532;0
2021/07/03 00:36:34;;;;;;;6.60;4.72;;;;;;;17.79;74.46;99244.59;5013065;28;20128;0
2021/07/03 00:39:01;;;;;;;6.63;4.07;;;;;;;17.81;74.23;99239.25;5011493;28;20092;0
2021/07/03 00:41:27;;;;;;;7.13;4.13;;;;;;;17.80;74.31;99234.88;4995476;28;20497;0
2021/07/03 00:43:54;;;;;;;6.38;4.40;;;;;;;17.72;74.49;99234.34;4995590;28;20049;0
2021/07/03 00:46:20;;;;;;;7.05;4.72;;;;;;;17.73;74.65;99244.00;5012066;28;20046;0
2021/07/03 00:48:46;;;;;;;8.20;6.00;;;;;;;17.66;75.22;99248.72;5011797;28;20524;-14
2021/07/03 00:51:15;;;;;;;10.40;4.85;;;;;;;17.63;74.84;99244.44;5011646;28;20144;0
2021/07/03 00:53:41;;;;;;;8.40;5.13;;;;;;;17.70;74.79;99250.28;5011463;28;20088;0
2021/07/03 00:56:09;;;;;;;8.95;5.00;;;;;;;17.96;74.81;99269.44;4995413;28;20045;0
2021/07/03 00:58:35;;;;;;;8.18;4.97;;;;;;;17.86;74.15;99261.06;5011579;28;20046;0
2021/07/03 01:01:02;;;;;;;8.43;5.70;;;;;;;17.81;74.42;99261.25;5011797;28;20053;0
2021/07/03 01:03:28;;;;;;;7.32;4.70;;;;;;;17.88;73.84;99256.53;5011328;28;20417;0
2021/07/03 01:05:54;;;;;;;7.78;5.05;;;;;;;17.80;74.16;99256.88;5011772;28;20053;0
2021/07/03 01:08:23;;;;;;;8.23;4.93;;;;;;;17.72;74.53;99251.09;4996018;28;20100;-6
2021/07/03 01:10:49;;;;;;;6.95;4.70;;;;;;;18.09;74.81;99304.94;5011415;28;20115;-6
2021/07/03 01:13:27;;;;;;;8.25;5.43;;;;;;;17.70;74.47;99252.94;5012809;28;20045;-6
2021/07/03 01:15:57;;;;;;;7.55;4.90;;;;;;;18.00;74.69;99297.44;5011256;28;20044;-6
2021/07/03 01:18:24;;;;;;;6.97;4.50;;;;;;;17.86;74.10;99253.13;5012319;28;20058;-6
2021/07/03 01:20:53;;;;;;;8.65;4.22;;;;;;;18.04;74.04;99277.00;5012602;28;20469;-6
2021/07/03 01:23:21;;;;;;;5.65;4.32;;;;;;;17.81;74.61;99253.31;5012686;28;20038;-7
2021/07/03 01:25:47;;;;;;;8.63;4.88;;;;;;;17.74;74.68;99248.38;5013190;28;20124;-7
2021/07/03 01:28:13;;;;;;;6.20;4.13;;;;;;;17.87;74.33;99252.16;5015870;28;20033;-6
2021/07/03 01:30:43;;;;;;;7.28;4.22;;;;;;;17.98;74.08;99252.56;5015143;28;20405;-6
2021/07/03 01:33:12;;;;;;;7.57;4.47;;;;;;;17.90;73.83;99243.22;5015829;28;20333;-6
2021/07/03 01:35:41;;;;;;;5.63;3.90;;;;;;;17.91;73.72;99242.31;5016308;28;20052;-6
2021/07/03 01:38:22;;;;;;;6.63;4.13;;;;;;;18.00;73.66;99245.44;5015984;28;20046;-6
2021/07/03 01:40:51;;;;;;;7.72;4.30;;;;;;;17.91;74.11;99248.44;5015931;28;20064;-7
2021/07/03 01:43:26;;;;;;;6.25;3.97;;;;;;;17.91;74.05;99251.09;5015923;28;20056;-4
2021/07/03 01:45:55;;;;;;;5.80;4.38;;;;;;;17.93;73.99;99259.00;5016155;28;20497;-5
2021/07/03 01:48:27;;;;;;;6.65;4.25;;;;;;;18.08;73.40;99254.78;5015481;28;20046;-5
2021/07/03 01:50:54;;;;;;;;;;;;;;;18.37;73.52;99308.09;5015832;28;20160;-5
2021/07/03 01:53:20;;;;;;;7.70;4.32;;;;;;;17.98;73.78;99262.28;4998235;28;20019;-5
2021/07/03 01:55:47;;;;;;;7.43;4.50;;;;;;;18.10;74.03;99292.59;5015645;28;20045;-6
2021/07/03 01:58:22;;;;;;;6.47;4.47;;;;;;;18.05;73.87;99253.13;5014088;28;20045;-6
2021/07/03 02:00:56;;;;;;;7.35;4.40;;;;;;;18.14;74.16;99302.94;5015389;28;20053;-6
2021/07/03 02:03:23;;;;;;;6.70;4.60;;;;;;;18.28;74.03;99315.53;5015202;28;20045;-6
2021/07/03 02:05:49;;;;;;;6.28;4.10;;;;;;;17.89;74.04;99258.25;5014027;28;20052;-6
2021/07/03 02:08:20;;;;;;;7.32;4.00;;;;;;;17.95;74.31;99258.00;5015235;28;20041;-6
2021/07/03 02:10:54;;;;;;;5.97;3.97;;;;;;;18.10;73.75;99271.44;5015325;28;20113;-6
2021/07/03 02:13:22;;;;;;;6.38;3.90;;;;;;;18.26;73.06;99269.75;5013852;28;20413;-10
2021/07/03 02:15:49;;;;;;;6.63;4.47;;;;;;;18.18;73.09;99269.28;5015522;28;20052;-6
2021/07/03 02:18:25;;;;;;;6.97;4.10;;;;;;;18.06;73.68;99264.59;5014830;28;20146;-6
2021/07/03 02:20:51;;;;;;;9.25;4.63;;;;;;;17.92;73.86;99260.75;4997339;28;20045;-5
2021/07/03 02:23:22;;;;;;;;;;;;;;;18.28;73.98;99312.91;5015537;28;20452;-5
2021/07/03 02:25:53;;;;;;;6.75;4.93;;;;;;;17.97;74.16;99253.50;5014912;28;20390;-6
2021/07/03 02:28:24;;;;;;;5.07;3.65;;;;;;;18.12;73.62;99265.16;5013504;28;20037;-5
2021/07/03 02:30:58;;;;;;;6.75;4.13;;;;;;;18.26;73.48;99253.03;5014815;28;20045;-5
2021/07/03 02:33:24;;;;;;;7.70;4.50;;;;;;;18.49;72.28;99266.03;5013523;28;20466;-5
2021/07/03 02:35:55;;;;;;;5.90;4.00;;;;;;;18.46;72.46;99273.25;5014950;28;20045;-5
2021/07/03 02:38:24;;;;;;;4.97;3.70;;;;;;;18.74;72.32;99307.19;5014641;28;20084;-5
2021/07/03 02:40:50;;;;;;;6.75;3.88;;;;;;;18.27;72.26;99252.97;5014627;28;20046;-5
2021/07/03 02:43:16;;;;;;;7.70;4.07;;;;;;;18.35;72.73;99260.53;5014464;28;20099;-5
2021/07/03 02:45:47;;;;;;;5.85;4.40;;;;;;;18.35;72.72;99271.13;5014903;28;20049;-5
2021/07/03 02:48:13;;;;;;;6.07;4.30;;;;;;;18.24;72.89;99255.78;5014985;28;20065;-6
2021/07/03 02:50:40;;;;;;;6.97;3.85;;;;;;;18.23;73.31;99264.63;5014492;28;20437;-6
2021/07/03 02:53:08;;;;;;;7.47;3.83;;;;;;;18.40;73.46;99289.44;5014278;28;20042;-7
2021/07/03 02:55:35;;;;;;;8.00;4.60;;;;;;;18.19;73.63;99266.56;5013330;28;20423;-4
2021/07/03 02:58:02;;;;;;;6.00;4.15;;;;;;;18.22;73.49;99259.41;4996625;28;20501;-6
2021/07/03 03:00:31;;;;;;;6.80;4.18;;;;;;;18.41;72.67;99259.38;5013219;28;20092;-6
2021/07/03 03:02:58;;;;;;;7.70;4.43;;;;;;;18.71;71.50;99269.41;5014161;28;20520;-6
2021/07/03 03:05:24;;;;;;;6.35;4.05;;;;;;;18.71;71.29;99257.03;5013025;28;20188;-6
2021/07/03 03:07:50;;;;;;;6.63;4.25;;;;;;;18.76;70.93;99264.72;5012840;28;20030;-6
2021/07/03 03:10:19;;;;;;;9.93;4.63;;;;;;;18.92;70.74;99278.13;5013914;28;20050;-6
2021/07/03 03:12:48;;;;;;;6.05;3.70;;;;;;;18.84;70.73;99278.47;5013358;28;20087;-6
2021/07/03 03:15:17;;;;;;;4.90;3.60;;;;;;;19.28;69.92;99315.13;5013949;28;20041;-6
2021/07/03 03:17:45;;;;;;;5.57;3.70;;;;;;;19.21;69.29;99287.22;4996145;28;20108;-6
2021/07/03 03:20:12;;;;;;;7.05;4.20;;;;;;;18.90;70.41;99280.81;5013718;28;20073;-6
2021/07/03 03:22:39;;;;;;;7.25;3.90;;;;;;;18.85;70.55;99285.44;5013780;28;20041;-6
2021/07/03 03:25:06;;;;;;;7.03;4.55;;;;;;;19.05;70.40;99292.44;5012489;28;20128;-6
2021/07/03 03:27:35;;;;;;;7.35;4.57;;;;;;;18.96;70.31;99287.63;5013675;28;20037;-6
2021/07/03 03:30:03;;;;;;;6.32;4.28;;;;;;;18.57;71.13;99272.75;4996232;28;20049;-6
2021/07/03 03:32:33;;;;;;;8.13;4.82;;;;;;;18.74;71.06;99290.44;5012379;28;20085;-6
2021/07/03 03:35:00;;;;;;;6.60;3.40;;;;;;;19.05;70.25;99288.94;5013826;28;20450;-5
2021/07/03 03:37:27;;;;;;;6.35;4.45;;;;;;;19.08;69.50;99292.28;5012311;28;20509;-5
2021/07/03 03:39:53;;;;;;;5.07;3.75;;;;;;;19.13;69.88;99292.06;5012235;28;20052;-6
2021/07/03 03:42:19;;;;;;;5.15;3.75;;;;;;;19.34;68.96;99321.91;5012244;28;20050;-6
2021/07/03 03:44:47;;;;;;;5.63;4.28;;;;;;;19.27;69.30;99294.84;5013395;28;20188;-4
2021/07/03 03:47:15;;;;;;;4.88;3.60;;;;;;;19.58;68.08;99301.22;5013437;28;20049;-6
2021/07/03 03:49:42;;;;;;;4.57;3.50;;;;;;;19.35;68.61;99281.22;5013087;28;20057;-6
2021/07/03 03:52:17;;;;;;;6.43;3.63;;;;;;;19.48;68.04;99284.09;5013862;28;20042;-6
2021/07/03 03:54:43;;;;;;;6.60;3.47;;;;;;;19.30;67.93;99289.38;5013196;28;20046;-5
2021/07/03 03:57:21;;;;;;;6.88;4.03;;;;;;;19.37;68.24;99284.63;4995795;28;20042;-6
2021/07/03 03:59:52;;;;;;;6.53;3.90;;;;;;;19.37;68.37;99289.06;5013637;28;20571;-5
2021/07/03 04:02:20;;;;;;;5.03;3.50;;;;;;;19.63;66.94;99283.28;5011939;28;20069;-5
2021/07/03 04:04:49;;;;;;;5.38;3.83;;;;;;;19.44;67.99;99298.44;5011925;28;20056;-5
2021/07/03 04:07:18;;;;;;;6.10;3.28;;;;;;;19.71;67.79;99325.28;5013006;28;20124;-5
2021/07/03 04:09:47;;;;;;;5.22;3.90;;;;;;;19.43;67.79;99305.50;5013287;28;20441;-5
2021/07/03 04:12:13;;;;;;;6.05;3.45;;;;;;;19.70;67.95;99315.63;5012997;28;20072;-5
2021/07/03 04:14:41;;;;;;;6.43;3.72;;;;;;;19.55;67.26;99309.31;5013229;28;20433;-5
2021/07/03 04:17:07;;;;;;;6.68;4.00;;;;;;;19.43;67.30;99312.63;5013213;28;20417;-5
2021/07/03 04:19:33;;;;;;;6.28;3.20;;;;;;;19.58;67.96;99303.00;5012671;28;20054;-5
2021/07/03 04:21:59;;;;;;;5.72;3.60;;;;;;;19.43;67.43;99309.97;5012046;28;20541;-5
2021/07/03 04:24:26;;;;;;;5.72;3.90;;;;;;;19.58;67.05;99310.94;5011980;28;20049;-5
2021/07/03 04:26:52;;;;;;;5.45;3.35;;;;;;;19.41;66.96;99306.53;5012017;28;20049;-5
2021/07/03 04:29:18;;;;;;;5.75;3.50;;;;;;;19.42;67.25;99310.91;5011894;28;20034;-6
2021/07/03 04:31:44;;;;;;;6.55;3.03;;;;;;;19.34;66.28;99304.19;5012811;28;20080;-5
2021/07/03 04:34:10;;;;;;;4.50;3.30;;;;;;;19.70;66.80;99305.00;5012812;28;20470;-5
2021/07/03 04:36:37;;;;;;;6.43;3.45;;;;;;;19.71;65.67;99304.09;5012811;28;20413;-5
2021/07/03 04:39:03;;;;;;;4.75;3.40;;;;;;;19.55;66.36;99304.00;5012940;28;20559;-12
2021/07/03 04:41:29;;;;;;;4.13;2.80;;;;;;;19.84;66.47;99312.25;5013166;28;20042;-6
2021/07/03 04:43:55;;;;;;;4.80;3.08;;;;;;;19.56;66.13;99307.53;5012778;28;20042;-6
2021/07/03 04:46:21;;;;;;;5.25;3.22;;;;;;;19.37;66.26;99315.59;5013178;28;20033;-6
2021/07/03 04:48:47;;;;;;;4.63;3.28;;;;;;;19.37;66.68;99308.47;5012969;28;20034;-6
2021/07/03 04:51:13;;;;;;;4.68;2.88;;;;;;;19.79;66.41;99311.59;5012557;28;20120;-5
2021/07/03 04:53:40;;;;;;;3.80;2.80;;;;;;;19.80;64.80;99292.09;5012895;28;20041;-5
2021/07/03 04:56:07;;;;;;;5.65;3.28;;;;;;;19.89;65.58;99304.91;5012634;28;20512;-4
2021/07/03 04:58:33;;;;;;;5.15;2.80;;;;;;;19.78;65.50;99278.09;5012795;28;20593;-5
2021/07/03 05:00:59;;;;;;;4.50;3.10;;;;;;;19.93;65.40;99317.09;5014892;28;20125;-6
2021/07/03 05:03:25;;;;;;;3.85;3.20;;;;;;;19.49;66.14;99296.41;5016456;28;20080;-5
2021/07/03 05:05:51;;;;;;;5.07;3.17;;;;;;;19.80;65.80;99329.22;5017050;28;20046;-6
2021/07/03 05:08:17;;;;;;;5.70;3.25;;;;;;;20.03;65.46;99293.53;5015638;28;20042;-5
2021/07/03 05:10:42;;;;;;;5.35;3.00;;;;;;;20.45;65.43;99345.19;5016409;28;20099;-5
2021/07/03 05:13:08;;;;;;;4.97;2.78;;;;;;;20.32;63.29;99301.69;5014965;28;20188;-5
2021/07/03 05:15:34;;;;;;;5.15;2.90;;;;;;;20.67;63.45;99350.16;5017000;28;20124;-6
2021/07/03 05:18:02;;;;;;;3.78;2.70;;;;;;;20.27;63.28;99307.28;5016078;28;20049;-4
2021/07/03 05:20:29;;;;;;;5.57;2.78;;;;;;;20.25;62.75;99303.00;5016270;28;20044;-5
2021/07/03 05:22:55;;;;;;;4.40;2.95;;;;;;;19.94;63.48;99299.38;5015854;28;20041;-5
2021/07/03 05:25:22;;;;;;;4.35;3.05;;;;;;;19.87;63.99;99312.09;5016198;28;20089;-5
2021/07/03 05:27:49;;;;;;;5.18;2.97;;;;;;;20.43;63.26;99362.19;5015863;28;20046;-5
2021/07/03 05:30:15;;;;;;;5.50;3.28;;;;;;;20.31;63.32;99338.00;5014523;28;20417;-5
2021/07/03 05:32:41;;;;;;;4.18;2.95;;;;;;;20.35;63.96;99306.84;5015724;28;20394;-5
2021/07/03 05:35:08;;;;;;;4.55;3.22;;;;;;;20.89;61.77;99367.56;5014563;28;20045;-5
2021/07/03 05:37:34;;;;;;;3.60;2.70;;;;;;;20.78;61.81;99341.63;5016197;28;20080;-5
2021/07/03 05:40:00;;;;;;;4.97;3.30;;;;;;;20.54;61.88;99322.59;5015660;28;20042;-6
2021/07/03 05:42:26;;;;;;;5.05;2.50;;;;;;;20.99;60.86;99336.88;5015828;28;20493;-6
2021/07/03 05:44:52;;;;;;;2.92;2.15;;;;;;;21.66;61.02;99370.22;5015657;28;20099;-6
2021/07/03 05:47:20;;;;;;;3.17;2.30;;;;;;;21.49;59.20;99326.00;5014601;28;20468;-4
2021/07/03 05:49:47;;;;;;;3.40;2.45;;;;;;;21.17;58.54;99315.47;5015814;28;20041;-5
2021/07/03 05:52:13;;;;;;;4.18;2.70;;;;;;;20.73;59.62;99313.59;5015475;28;20037;-6
2021/07/03 05:54:39;;;;;;;5.03;2.50;;;;;;;21.11;61.30;99369.00;5015484;28;20048;-6
2021/07/03 05:57:05;;;;;;;3.67;2.80;;;;;;;20.90;58.95;99336.53;5015487;28;20041;-6
2021/07/03 05:59:31;;;;;;;6.55;2.53;;;;;;;20.88;59.97;99355.22;5015264;28;20056;-6
2021/07/03 06:01:57;;;;;;;4.13;2.75;;;;;;;20.73;59.89;99316.25;5015272;28;20386;-5
2021/07/03 06:04:23;;;;;;;5.78;2.47;;;;;;;21.26;58.79;99368.13;5015330;28;20049;-10
2021/07/03 06:06:50;;;;;;;5.82;2.70;;;;;;;21.39;58.44;99311.53;5015224;28;20046;-6
2021/07/03 06:09:16;;;;;;;5.57;2.33;;;;;;;21.20;57.66;99291.38;5015581;28;20042;-5
2021/07/03 06:11:42;;;;;;;3.80;2.60;;;;;;;21.05;57.22;99305.56;5014600;28;20132;-6
2021/07/03 06:14:08;;;;;;;5.03;2.25;;;;;;;21.30;57.99;99345.72;5015392;28;20038;-5
2021/07/03 06:16:34;;;;;;;4.93;2.50;;;;;;;21.21;57.64;99322.34;5014327;28;20044;-5
2021/07/03 06:19:01;;;;;;;3.30;2.00;;;;;;;21.10;57.29;99333.59;5015567;28;20049;-10
2021/07/03 06:21:27;;;;;;;3.67;2.30;;;;;;;21.03;57.92;99291.50;5015451;28;20072;-5
2021/07/03 06:23:54;;;;;;;5.63;2.20;;;;;;;20.92;57.80;99314.25;5015517;28;20052;-5
2021/07/03 06:26:19;;;;;;;3.58;2.40;;;;;;;20.82;57.83;99308.63;5015343;28;20413;-6
2021/07/03 06:28:46;;;;;;;3.42;2.42;;;;;;;20.97;58.51;99341.41;5015158;28;20044;-6
2021/07/03 06:31:12;;;;;;;3.28;2.22;;;;;;;21.19;59.01;99336.66;5015157;28;20048;-6
2021/07/03 06:33:38;;;;;;;8.50;3.55;;;;;;;20.63;60.92;99340.66;5015169;28;20053;-6
2021/07/03 06:36:05;;;;;;;5.40;3.30;;;;;;;20.44;61.92;99354.13;5014183;28;20049;-6
2021/07/03 06:38:32;;;;;;;7.55;3.10;;;;;;;20.60;61.33;99327.56;5014946;28;20042;-6
2021/07/03 06:40:58;;;;;;;5.82;3.00;;;;;;;20.47;60.98;99319.41;5014768;28;20041;-3
2021/07/03 06:43:24;;;;;;;5.18;2.85;;;;;;;20.83;60.68;99338.69;5015001;28;20046;-4
2021/07/03 06:45:56;;;;;;;4.60;2.58;;;;;;;20.89;60.88;99366.72;5014970;28;20044;-3
2021/07/03 06:48:22;;;;;;;8.25;3.00;;;;;;;21.14;60.19;99374.13;5013574;28;20037;-4
2021/07/03 06:50:50;;;;;;;5.03;2.95;;;;;;;21.22;59.92;99365.72;5014297;28;20046;-4
2021/07/03 06:53:16;;;;;;;4.88;3.00;;;;;;;20.86;60.35;99329.69;5014810;28;20101;-4
2021/07/03 06:55:42;;;;;;;4.50;2.97;;;;;;;21.01;60.37;99327.97;5014294;28;20052;-3
2021/07/03 06:58:08;;;;;;;3.65;2.67;;;;;;;21.49;58.67;99371.19;5014710;28;20081;-4
2021/07/03 07:00:34;;;;;;;3.75;2.63;;;;;;;21.60;57.46;99344.00;5014239;28;20183;-4
2021/07/03 07:03:00;;;;;;;5.47;2.70;;;;;;;21.68;56.65;99330.22;5012844;28;20045;-4
2021/07/03 07:05:26;;;;;;;2.95;2.15;;;;;;;22.20;56.25;99374.94;5014420;28;20045;-2
2021/07/03 07:07:52;;;;;;;3.58;2.35;;;;;;;22.10;55.29;99366.63;5014004;28;20046;-2
2021/07/03 07:10:18;;;;;;;6.57;2.10;;;;;;;22.13;55.53;99346.97;5014272;28;20139;-3
2021/07/03 07:12:44;;;;;;;3.60;2.53;;;;;;;22.16;55.37;99354.75;5014318;28;20073;-3
2021/07/03 07:15:10;;;;;;;4.53;2.38;;;;;;;22.01;56.17;99326.44;5014363;28;20091;-4
2021/07/03 07:17:36;;;;;;;3.60;2.30;;;;;;;22.33;55.43;99343.03;5014058;28;20057;-4
2021/07/03 07:20:04;;;;;;;4.38;2.40;;;;;;;22.19;54.49;99322.63;5014342;28;20112;-3
2021/07/03 07:22:30;;;;;;;4.72;2.55;;;;;;;22.36;55.18;99368.63;5013518;28;20137;-3
2021/07/03 07:24:56;;;;;;;3.30;2.25;;;;;;;22.47;55.12;99374.16;5013962;28;20038;-3
2021/07/03 07:27:22;;;;;;;6.22;2.83;;;;;;;22.81;54.44;99363.97;5014032;28;20065;-3
2021/07/03 07:29:49;;;;;;;3.83;2.85;;;;;;;22.58;55.47;99379.66;5014211;28;20111;-3
2021/07/03 07:32:15;;;;;;;7.80;3.03;;;;;;;22.77;56.26;99335.81;4996253;28;20064;-2
2021/07/03 07:34:41;;;;;;;11.75;3.00;;;;;;;23.22;55.31;99375.56;5013616;28;20046;-2
2021/07/03 07:37:09;;;;;;;9.13;3.30;;;;;;;22.98;55.04;99362.03;4995214;28;20046;-2
2021/07/03 07:39:35;;;;;;;4.65;2.05;;;;;;;23.20;53.54;99375.66;5012260;28;20500;-6
2021/07/03 07:42:01;;;;;;;11.38;3.40;;;;;;;23.05;55.26;99344.66;5013146;28;20046;-3
2021/07/03 07:44:27;;;;;;;3.58;2.17;;;;;;;23.04;53.81;99351.81;5013312;28;20041;-3
2021/07/03 07:46:53;;;;;;;11.07;2.90;;;;;;;23.07;54.13;99348.09;5013399;28;20049;-2
2021/07/03 07:49:19;;;;;;;3.38;2.38;;;;;;;22.58;54.24;99355.69;5013277;28;20037;-3
2021/07/03 07:51:45;;;;;;;13.25;3.38;;;;;;;22.94;56.65;99364.03;5013234;28;20050;-3
2021/07/03 07:54:11;;;;;;;9.73;3.10;;;;;;;23.34;54.84;99353.41;5013469;28;20029;-3
2021/07/03 07:56:37;;;;;;;13.25;3.40;;;;;;;23.78;52.43;99370.00;5013251;28;20046;-3
2021/07/03 07:59:03;;;;;;;4.43;2.40;;;;;;;23.46;53.14;99346.38;5013118;28;20528;-3
2021/07/03 08:01:30;;;;;;;5.90;2.90;;;;;;;23.25;54.39;99343.38;5012970;28;20129;-3
2021/07/03 08:03:56;;;;;;;10.23;3.28;;;;;;;23.58;54.48;99342.00;5013387;28;20073;-4
2021/07/03 08:06:22;;;;;;;3.90;2.63;;;;;;;23.13;54.20;99345.03;5012658;28;20049;-4
2021/07/03 08:08:48;;;;;;;13.55;3.28;;;;;;;23.57;54.29;99367.84;5013010;28;20095;-3
2021/07/03 08:11:14;;;;;;;9.00;3.38;;;;;;;23.81;53.58;99379.63;5013217;28;20527;-3
2021/07/03 08:13:40;;;;;;;6.82;2.40;;;;;;;23.86;52.76;99372.16;5013254;28;20112;-3
2021/07/03 08:16:06;;;;;;;8.07;3.17;;;;;;;24.07;52.96;99380.50;5011794;28;20042;-3
2021/07/03 08:18:32;;;;;;;6.13;2.83;;;;;;;24.09;51.70;99383.91;5011877;28;20061;-4
2021/07/03 08:20:59;;;;;;;7.28;3.00;;;;;;;23.98;51.86;99370.47;5012033;28;20046;-3
2021/07/03 08:23:25;;;;;;;8.95;2.60;;;;;;;23.78;51.24;99380.69;5012839;28;20080;-3
2021/07/03 08:25:51;;;;;;;4.32;2.78;;;;;;;23.10;52.60;99361.19;5013013;28;20124;-3
2021/07/03 08:28:17;;;;;;;4.45;2.10;;;;;;;23.03;52.82;99376.75;5012764;28;20088;-3
2021/07/03 08:30:44;;;;;;;4.25;2.13;;;;;;;22.94;54.25;99375.56;5012728;28;20041;-3
2021/07/03 08:33:10;;;;;;;4.05;2.58;;;;;;;22.60;55.61;99404.38;5013091;28;20419;-3
2021/07/03 08:35:36;;;;;;;6.22;3.13;;;;;;;22.34;56.43;99381.19;5016696;28;20546;-3
2021/07/03 08:38:02;;;;;;;5.07;2.70;;;;;;;22.54;55.34;99372.81;5016783;28;20041;-3
2021/07/03 08:40:31;;;;;;;6.32;3.38;;;;;;;22.56;55.56;99381.56;5015982;28;20128;-3
2021/07/03 08:42:58;;;;;;;7.90;3.20;;;;;;;22.38;56.39;99404.88;5015667;28;20042;-2
2021/07/03 08:45:24;;;;;;;10.13;3.10;;;;;;;22.66;56.18;99407.59;5016142;28;20049;-3
2021/07/03 08:47:50;;;;;;;4.00;2.63;;;;;;;22.53;55.58;99386.22;5016929;28;20404;-3
2021/07/03 08:50:17;;;;;;;6.55;2.78;;;;;;;22.65;54.96;99390.78;5016655;28;20038;-3
2021/07/03 08:52:43;;;;;;;4.40;3.05;;;;;;;22.91;54.81;99386.41;5016740;28;20465;-2
2021/07/03 08:55:18;;;;;;;11.88;3.28;;;;;;;23.07;56.44;99406.72;5015729;28;20049;-3
2021/07/03 08:57:48;;;;;;;8.45;3.28;;;;;;;22.98;55.47;99404.69;5016569;28;20493;-3
2021/07/03 09:00:15;;;;;;;13.23;5.45;;;;;;;23.02;55.34;99387.53;5016791;28;20049;-3
2021/07/03 09:02:43;;;;;;;8.30;4.20;;;;;;;22.92;55.52;99380.13;5016359;28;20404;-3
2021/07/03 09:05:29;;;;;;;11.43;4.82;;;;;;;22.67;56.44;99398.66;5016197;28;20385;-3
2021/07/03 09:08:02;;;;;;;4.85;3.45;;;;;;;22.94;55.77;99404.00;5016317;28;20069;-3
2021/07/03 09:10:29;;;;;;;9.82;4.22;;;;;;;23.19;56.20;99413.09;5016085;28;20128;-3
2021/07/03 09:12:57;;;;;;;7.38;3.83;;;;;;;23.22;54.92;99428.88;5015663;28;20040;-2
2021/07/03 09:15:24;;;;;;;5.18;3.55;;;;;;;23.17;54.71;99423.88;5016651;28;20045;-3
2021/07/03 09:17:54;;;;;;;5.32;3.17;;;;;;;22.82;55.41;99410.16;5014783;28;20161;-3
2021/07/03 09:20:24;;;;;;;6.28;3.80;;;;;;;22.59;55.79;99404.47;5016192;28;20561;-3
2021/07/03 09:22:50;;;;;;;7.10;4.05;;;;;;;22.59;56.23;99396.47;5015971;28;20044;-2
2021/07/03 09:25:23;;;;;;;4.45;3.15;;;;;;;23.13;55.22;99407.19;5015980;28;20563;-3
2021/07/03 09:27:49;;;;;;;4.68;3.17;;;;;;;23.17;54.33;99402.53;5014761;28;20045;-3
2021/07/03 09:30:19;;;;;;;5.45;3.20;;;;;;;23.46;54.67;99400.56;5023000;28;20548;-3
2021/07/03 09:32:53;;;;;;;9.13;3.88;;;;;;;23.59;55.51;99402.44;5034773;28;20037;-3
2021/07/03 09:35:20;;;;;;;6.35;3.83;;;;;;;23.85;53.00;99381.09;5034931;28;20049;-3
2021/07/03 09:37:46;;;;;;;4.53;3.33;;;;;;;23.81;52.57;99380.47;5035232;28;20030;-3
2021/07/03 09:40:13;;;;;;;5.00;3.10;;;;;;;23.51;52.84;99372.75;5034553;28;20104;-3
2021/07/03 09:42:40;;;;;;;5.55;3.03;;;;;;;23.66;53.28;99395.69;5035386;28;20496;-4
2021/07/03 09:45:07;;;;;;;17.58;4.38;;;;;;;23.77;52.85;99378.97;5030110;28;20404;-2
2021/07/03 09:47:33;;;;;;;12.90;4.15;;;;;;;24.03;53.06;99403.88;5034695;28;20049;-3
2021/07/03 09:50:06;;;;;;;4.90;3.22;;;;;;;24.05;51.13;99403.78;5035232;28;20047;-3
2021/07/03 09:52:34;;;;;;;8.15;3.92;;;;;;;24.03;51.46;99395.88;5035800;28;20038;-3
2021/07/03 09:55:02;;;;;;;7.93;3.60;;;;;;;24.06;51.86;99394.81;5035272;28;20554;-3
2021/07/03 09:57:29;;;;;;;7.72;3.75;;;;;;;23.84;52.06;99408.75;5030561;28;20537;-3
2021/07/03 09:59:55;;;;;;;4.13;3.05;;;;;;;23.13;53.18;99379.69;5029613;28;20512;-3
2021/07/03 10:02:21;;;;;;;5.00;3.47;;;;;;;23.52;53.01;99412.66;5035195;28;20538;-3
2021/07/03 10:04:47;;;;;;;6.30;3.50;;;;;;;23.50;53.45;99409.22;5034746;28;20060;-3
2021/07/03 10:07:23;;;;;;;11.40;4.55;;;;;;;23.97;52.80;99416.81;5034704;28;20048;-3
2021/07/03 10:09:57;;;;;;;8.25;3.63;;;;;;;24.28;51.17;99420.84;5034243;28;20103;-3
2021/07/03 10:12:28;;;;;;;8.90;4.00;;;;;;;24.26;50.97;99412.94;5034111;28;20037;-3
2021/07/03 10:14:55;;;;;;;9.20;4.35;;;;;;;23.91;53.58;99412.72;5032548;28;20605;-3
2021/07/03 10:17:25;;;;;;;4.95;3.65;;;;;;;23.91;51.31;99407.38;5034679;28;20037;-3
2021/07/03 10:19:52;;;;;;;22.67;4.20;;;;;;;24.03;53.32;99409.22;5034252;28;20067;-4
2021/07/03 10:22:20;;;;;;;21.02;4.03;;;;;;;24.40;51.15;99411.94;5034824;28;20029;-3
2021/07/03 10:24:53;;;;;;;13.23;4.05;;;;;;;24.66;52.44;99384.38;5035110;28;20512;-3
2021/07/03 10:27:27;;;;;;;8.68;3.80;;;;;;;24.79;49.73;99398.53;5033589;28;20518;-3
2021/07/03 10:29:54;;;;;;;5.82;3.80;;;;;;;23.94;50.70;99386.69;5028286;28;20476;-3
2021/07/03 10:32:21;;;;;;;9.48;3.92;;;;;;;24.59;52.34;99390.13;5033554;28;20829;-3
2021/07/03 10:34:47;;;;;;;10.88;3.78;;;;;;;24.72;49.82;99392.78;5032443;28;20488;-3
2021/07/03 10:37:16;;;;;;;16.90;3.90;;;;;;;24.97;51.94;99385.63;5050781;28;20043;-5
2021/07/03 10:39:42;;;;;;;10.02;3.85;;;;;;;24.91;47.60;99383.41;5054620;28;20063;-4
2021/07/03 10:42:08;;;;;;;13.00;3.92;;;;;;;24.76;50.84;99372.88;5053967;28;20043;-3
2021/07/03 10:44:39;;;;;;;6.00;4.18;;;;;;;24.37;51.64;99366.78;5054060;28;20107;-4
2021/07/03 10:47:10;;;;;;;15.35;4.82;;;;;;;24.50;52.83;99379.25;5040104;28;20407;-3
2021/07/03 10:49:38;;;;;;;8.07;4.45;;;;;;;24.24;51.60;99389.97;5032375;28;20120;-3
2021/07/03 10:52:15;;;;;;;10.80;5.10;;;;;;;23.64;53.57;99359.44;5033924;28;20523;-3
2021/07/03 10:54:41;;;;;;;9.02;5.13;;;;;;;23.78;54.36;99394.03;5033383;28;20120;-3
2021/07/03 10:57:09;;;;;;;15.38;5.20;;;;;;;23.88;55.17;99388.91;5033763;28;20087;-3
2021/07/03 10:59:37;;;;;;;8.98;4.72;;;;;;;23.65;53.93;99354.00;5033658;28;20368;-3
2021/07/03 11:02:16;;;;;;;9.25;4.35;;;;;;;23.91;53.54;99404.72;5032822;28;20132;-3
2021/07/03 11:04:52;;;;;;;9.73;4.25;;;;;;;23.87;52.60;99406.72;5032716;28;20068;-3
2021/07/03 11:07:20;;;;;;;10.98;4.63;;;;;;;24.00;54.50;99408.56;5033911;28;20049;-3
2021/07/03 11:09:46;;;;;;;12.15;4.50;;;;;;;24.21;54.13;99411.53;5032476;28;20116;-3
2021/07/03 11:12:16;;;;;;;7.05;4.28;;;;;;;24.34;52.07;99416.88;5033620;28;20049;-3
2021/07/03 11:14:53;;;;;;;10.68;4.57;;;;;;;24.16;53.59;99387.84;5032467;28;20055;-3
2021/07/03 11:17:21;;;;;;;20.88;4.60;;;;;;;24.48;54.11;99411.41;5033246;28;20041;-3
2021/07/03 11:19:50;;;;;;;19.33;4.25;;;;;;;24.55;52.91;99399.31;5033634;28;20041;-2
2021/07/03 11:22:21;;;;;;;8.30;4.88;;;;;;;24.50;53.12;99393.47;5034297;28;20037;-3
2021/07/03 11:24:58;;;;;;;12.95;5.05;;;;;;;24.17;51.85;99370.00;5032626;28;20045;-3
2021/07/03 11:27:40;;;;;;;6.05;4.05;;;;;;;24.07;53.39;99408.03;5033402;28;20425;-3
2021/07/03 11:30:16;;;;;;;10.90;4.47;;;;;;;23.99;51.27;99380.16;5032237;28;20060;-3
2021/07/03 11:32:56;;;;;;;18.73;5.25;;;;;;;24.37;53.79;99401.50;5033835;28;20527;-3
2021/07/03 11:35:23;;;;;;;7.85;3.30;;;;;;;24.55;51.21;99383.28;5033808;28;20065;-3
2021/07/03 11:37:49;;;;;;;5.95;3.30;;;;;;;24.53;51.47;99374.53;5033153;28;20049;-3
2021/07/03 11:40:26;;;;;;;11.25;4.88;;;;;;;24.35;49.93;99387.38;5033311;28;20033;-3
2021/07/03 11:42:57;;;;;;;12.75;4.10;;;;;;;24.07;52.11;99383.16;5033836;28;20049;-3